Huvudsida
METAR-TAF:

METAR-TAF

Flygplatser :

Dogonbadan, Iran

latitud: 30-26N, longitud: 050-46E, höjd: 738 m

Aktuellt väderrapport

Denna rapport gjordes för 1 timme och 4 minuter sedan, klockan 23:00 UTC
Stilla vind
Temperatur 10°C
Fuktighet 53%
Tryck 1013 hPa
Sikt 10 km eller mer
Inga moln under 1 500 m eller inga cumulonimbus

METAR: OIAH 152300Z 00000KT CAVOK 10/01 Q1013

Tid: 03:34 (00:04 UTC)


TAF: saknas

Aktuella väderrapporter och prognoser från 4000 flygplatser (METAR- och TAF-rapporter).

De tillgängliga stationerna syns som gula och röda prickar på kartan.

För musen över prickarna för att se namnen på stationerna.

Klicka sedan för att få väderrapporter och prognoser.

För att ändra kartan: Klicka på de gröna knapparna med ett svart kors på för att zooma in; den gröna knappen med ett streck på för att zooma ut; eller på de gröna pilarna för angränsande kartor.


METAR-TAF: